Time;durP1;ratioP1;P1;durP2;ratioP2;P2;SDS_P1;SDS_P2;PMS_P1;PMS_P2;Temp;Humidity;BMP_temperature;BMP_pressure;BME280_temperature;BME280_humidity;BME280_pressure;Samples;Min_cycle;Max_cycle;Signal;HPM_P1;HPM_P2
2021/05/23 00:00:27;;;;;;;14.38;5.78;;;;;;;15.77;62.81;100195.59;5046586;28;20036;-25
2021/05/23 00:02:57;;;;;;;10.50;5.18;;;;;;;15.81;62.47;100185.97;5046860;28;20105;-24
2021/05/23 00:05:26;;;;;;;8.60;5.15;;;;;;;16.00;61.64;100168.44;5046528;28;20029;-24
2021/05/23 00:07:54;;;;;;;8.13;5.20;;;;;;;16.55;60.00;100168.44;5046615;28;20037;-24
2021/05/23 00:10:20;;;;;;;7.55;4.95;;;;;;;16.04;61.73;100179.53;5046390;28;20074;-24
2021/05/23 00:12:48;;;;;;;9.98;5.28;;;;;;;16.31;60.91;100179.53;5047370;28;20037;-24
2021/05/23 00:15:17;;;;;;;;;;;;;;;15.81;62.52;100186.81;5045504;28;20033;-24
2021/05/23 00:17:43;;;;;;;7.35;5.15;;;;;;;15.11;64.36;100182.84;5039252;28;19916;-25
2021/05/23 00:20:09;;;;;;;6.30;4.72;;;;;;;14.66;65.63;100186.44;5040369;28;20029;-24
2021/05/23 00:22:35;;;;;;;9.18;5.45;;;;;;;15.39;63.35;100183.78;5040955;28;20719;-24
2021/05/23 00:25:00;;;;;;;7.80;5.20;;;;;;;15.42;62.65;100175.22;5039149;28;20028;-25
2021/05/23 00:27:26;;;;;;;7.40;5.10;;;;;;;15.63;62.06;100184.34;5032704;28;20076;-24
2021/05/23 00:29:51;;;;;;;8.23;5.15;;;;;;;15.27;62.80;100160.53;5030595;28;20029;-24
2021/05/23 00:32:17;;;;;;;7.50;5.38;;;;;;;15.47;62.35;100183.38;5030265;28;20032;-24
2021/05/23 00:34:42;;;;;;;7.15;4.88;;;;;;;15.48;62.17;100182.28;5030388;28;20033;-24
2021/05/23 00:37:08;;;;;;;7.25;5.07;;;;;;;15.41;62.76;100187.03;5030382;28;20072;-24
2021/05/23 00:39:33;;;;;;;7.25;4.60;;;;;;;15.55;62.61;100188.31;5030780;28;20476;-24
2021/05/23 00:41:59;;;;;;;6.18;4.60;;;;;;;15.37;62.26;100202.03;5030441;28;20029;-24
2021/05/23 00:44:24;;;;;;;6.45;4.85;;;;;;;15.19;62.69;100185.13;5030145;28;20032;-24
2021/05/23 00:46:50;;;;;;;6.50;4.85;;;;;;;15.57;61.82;100188.03;5030288;28;20025;-24
2021/05/23 00:49:15;;;;;;;7.78;5.18;;;;;;;15.57;61.46;100206.84;5030298;28;20517;-24
2021/05/23 00:51:40;;;;;;;6.30;4.68;;;;;;;15.13;62.99;100202.22;5028463;28;20056;-24
2021/05/23 00:54:06;;;;;;;6.97;4.85;;;;;;;15.21;62.25;100207.19;5030154;28;20148;-24
2021/05/23 00:56:31;;;;;;;7.55;5.38;;;;;;;14.72;64.37;100206.94;5030090;28;20033;-24
2021/05/23 00:58:57;;;;;;;6.65;5.05;;;;;;;14.64;64.75;100200.09;5028783;28;20033;-24
2021/05/23 01:01:44;;;;;;;7.28;4.85;;;;;;;14.67;64.22;100212.25;5029907;28;20038;-24
2021/05/23 01:04:10;;;;;;;6.80;4.93;;;;;;;14.57;64.65;100215.56;5029905;28;20018;-24
2021/05/23 01:06:35;;;;;;;7.03;5.32;;;;;;;15.33;62.11;100222.41;5030004;28;20072;-24
2021/05/23 01:09:01;;;;;;;7.28;5.47;;;;;;;14.78;63.86;100222.06;5029859;28;20037;-24
2021/05/23 01:11:30;;;;;;;8.82;5.55;;;;;;;14.59;64.81;100221.50;5029894;28;20160;-24
2021/05/23 01:13:58;;;;;;;12.52;5.97;;;;;;;14.65;64.43;100222.41;5029618;28;20022;-24
2021/05/23 01:16:36;;;;;;;9.68;5.43;;;;;;;14.89;62.88;100206.13;5029426;28;20037;-24
2021/05/23 01:19:27;;;;;;;9.63;5.82;;;;;;;14.46;64.20;100211.00;5029550;28;20104;-24
2021/05/23 01:21:53;;;;;;;10.07;5.53;;;;;;;14.12;65.31;100208.25;5028686;28;20033;-24
2021/05/23 01:24:26;;;;;;;7.25;5.32;;;;;;;14.03;65.51;100199.75;5027655;28;20021;-24
2021/05/23 01:26:54;;;;;;;8.27;5.43;;;;;;;14.12;65.86;100210.09;5029347;28;20033;-24
2021/05/23 01:29:20;;;;;;;9.55;5.72;;;;;;;14.96;62.17;100186.13;5012171;28;20397;-24
2021/05/23 01:31:46;;;;;;;9.07;5.57;;;;;;;15.20;61.63;100213.63;5028251;28;20482;-24
2021/05/23 01:34:16;;;;;;;7.97;5.80;;;;;;;14.81;63.34;100210.03;5027946;28;20048;-24
2021/05/23 01:36:41;;;;;;;8.10;5.80;;;;;;;15.28;61.88;100209.69;5011644;28;20029;-24
2021/05/23 01:39:07;;;;;;;8.05;6.20;;;;;;;15.39;61.79;100207.97;5029205;28;20095;-24
2021/05/23 01:41:33;;;;;;;9.95;6.70;;;;;;;15.29;62.10;100199.78;5029155;28;20225;-24
2021/05/23 01:43:58;;;;;;;9.10;6.13;;;;;;;15.32;61.43;100177.78;5011510;28;20612;-24
2021/05/23 01:46:24;;;;;;;9.57;6.38;;;;;;;15.01;62.39;100194.25;5028018;28;20092;-24
2021/05/23 01:48:49;;;;;;;10.02;6.28;;;;;;;14.47;63.66;100189.31;5029190;28;20065;-24
2021/05/23 01:51:15;;;;;;;12.82;6.88;;;;;;;14.27;63.81;100183.56;5027742;28;20452;-24
2021/05/23 01:53:41;;;;;;;11.00;6.30;;;;;;;14.16;65.00;100197.84;5029058;28;20037;-24
2021/05/23 01:56:09;;;;;;;9.52;6.80;;;;;;;14.92;63.31;100208.34;5027485;28;20048;-24
2021/05/23 01:58:35;;;;;;;11.40;6.75;;;;;;;15.18;61.78;100196.94;5028599;28;20116;-24
2021/05/23 02:01:00;;;;;;;10.25;7.25;;;;;;;15.32;61.54;100216.19;5029091;28;20044;-24
2021/05/23 02:03:26;;;;;;;8.93;6.85;;;;;;;15.24;61.59;100214.75;5027585;28;20021;-24
2021/05/23 02:05:54;;;;;;;9.85;6.55;;;;;;;15.25;61.41;100216.38;5027657;28;20030;-24
2021/05/23 02:08:22;;;;;;;8.15;6.32;;;;;;;14.40;64.67;100215.47;5029012;28;20036;-24
2021/05/23 02:10:48;;;;;;;10.23;6.47;;;;;;;13.77;66.70;100192.25;5010801;28;20079;-24
2021/05/23 02:13:14;;;;;;;11.10;6.57;;;;;;;13.93;66.70;100215.63;5028897;28;20025;-24
2021/05/23 02:15:40;;;;;;;10.98;6.72;;;;;;;13.86;67.16;100209.59;5028744;28;20029;-24
2021/05/23 02:18:06;;;;;;;9.40;6.38;;;;;;;13.78;67.19;100199.25;5027646;28;20025;-24
2021/05/23 02:20:31;;;;;;;8.10;5.50;;;;;;;14.04;65.33;100206.75;5028611;28;20037;-24
2021/05/23 02:22:58;;;;;;;8.00;5.28;;;;;;;13.56;66.91;100204.41;5028605;28;20029;-24
2021/05/23 02:25:24;;;;;;;7.95;4.85;;;;;;;13.27;67.13;100167.59;5028068;28;20112;-24
2021/05/23 02:27:51;;;;;;;10.77;5.68;;;;;;;13.68;66.14;100201.72;5028601;28;20123;-24
2021/05/23 02:30:21;;;;;;;8.75;4.93;;;;;;;13.46;67.41;100203.16;5028217;28;20063;-24
2021/05/23 02:32:47;;;;;;;8.07;5.25;;;;;;;13.35;67.18;100197.81;5028529;28;20367;-23
2021/05/23 02:35:13;;;;;;;9.10;5.30;;;;;;;12.97;68.63;100201.69;5027643;28;20506;-24
2021/05/23 02:37:39;;;;;;;9.25;5.60;;;;;;;13.37;66.96;100206.41;5027920;28;20021;-24
2021/05/23 02:40:09;;;;;;;8.95;5.55;;;;;;;13.42;66.57;100190.44;5027960;28;20029;-23
2021/05/23 02:42:35;;;;;;;10.77;5.75;;;;;;;13.68;65.06;100207.88;5028769;28;20036;-24
2021/05/23 02:45:00;;;;;;;9.00;5.88;;;;;;;13.82;65.05;100211.94;5028261;28;20037;-24
2021/05/23 02:47:26;;;;;;;16.85;6.97;;;;;;;13.15;67.08;100193.56;5028051;28;20036;-24
2021/05/23 02:49:52;;;;;;;9.20;6.72;;;;;;;12.82;69.64;100204.84;5027918;28;20045;-23
2021/05/23 02:52:17;;;;;;;10.40;6.05;;;;;;;13.07;68.26;100191.22;5027317;28;20085;-24
2021/05/23 02:54:43;;;;;;;9.88;6.07;;;;;;;13.00;68.58;100211.97;5026401;28;20030;-23
2021/05/23 02:57:08;;;;;;;9.30;5.97;;;;;;;13.23;67.90;100205.78;5027890;28;20504;-23
2021/05/23 02:59:34;;;;;;;10.30;6.45;;;;;;;12.98;68.58;100208.69;5028222;28;20474;-23
2021/05/23 03:02:00;;;;;;;8.07;5.80;;;;;;;12.68;69.97;100201.53;5027982;28;20832;-23
2021/05/23 03:04:25;;;;;;;8.15;5.60;;;;;;;12.60;69.77;100209.88;5027635;28;20029;-23
2021/05/23 03:06:51;;;;;;;7.45;4.90;;;;;;;12.34;70.81;100219.94;5027515;28;20029;-23
2021/05/23 03:09:16;;;;;;;8.43;5.28;;;;;;;12.51;69.89;100225.47;5027313;28;20497;-23
2021/05/23 03:11:43;;;;;;;9.15;5.97;;;;;;;12.68;69.27;100206.88;5027666;28;20040;-23
2021/05/23 03:14:09;;;;;;;8.77;5.70;;;;;;;12.35;70.10;100210.06;5026221;28;20041;-23
2021/05/23 03:16:35;;;;;;;9.95;6.00;;;;;;;12.21;70.66;100228.13;5027685;28;20212;-23
2021/05/23 03:19:01;;;;;;;9.55;5.63;;;;;;;12.20;70.85;100231.84;5027507;28;20029;-23
2021/05/23 03:21:26;;;;;;;8.88;5.32;;;;;;;12.20;70.53;100239.88;5027522;28;20469;-23
2021/05/23 03:23:52;;;;;;;8.45;5.13;;;;;;;12.44;69.69;100230.91;5027356;28;20857;-23
2021/05/23 03:26:17;;;;;;;8.95;5.80;;;;;;;12.62;69.82;100231.88;5027154;28;20025;-23
2021/05/23 03:28:43;;;;;;;8.18;5.30;;;;;;;12.54;69.72;100226.84;5027428;28;20094;-23
2021/05/23 03:31:08;;;;;;;7.97;5.25;;;;;;;12.64;69.39;100227.13;5027165;28;20045;-23
2021/05/23 03:33:34;;;;;;;8.27;5.80;;;;;;;12.93;69.25;100225.44;5027475;28;20026;-23
2021/05/23 03:35:59;;;;;;;9.77;6.63;;;;;;;12.81;69.88;100209.38;5027409;28;20513;-23
2021/05/23 03:38:24;;;;;;;11.00;7.03;;;;;;;12.54;71.04;100224.19;5027276;28;20044;-23
2021/05/23 03:40:50;;;;;;;14.73;8.93;;;;;;;12.35;71.49;100226.09;5027342;28;20033;-23
2021/05/23 03:43:15;;;;;;;14.38;8.05;;;;;;;12.36;71.88;100231.22;5027095;28;20033;-23
2021/05/23 03:45:41;;;;;;;11.40;6.80;;;;;;;12.59;71.56;100216.31;5027047;28;20036;-23
2021/05/23 03:48:06;;;;;;;12.98;6.63;;;;;;;12.75;71.39;100230.88;5026167;28;20033;-23
2021/05/23 03:50:32;;;;;;;10.15;6.82;;;;;;;12.93;70.76;100200.53;5026901;28;20039;-23
2021/05/23 03:52:58;;;;;;;9.63;7.00;;;;;;;13.19;70.54;100202.75;5027076;28;20092;-23
2021/05/23 03:55:24;;;;;;;12.18;7.13;;;;;;;13.62;68.95;100220.34;5027184;28;20041;-23
2021/05/23 03:57:49;;;;;;;10.45;7.32;;;;;;;13.56;70.33;100232.00;5027428;28;20033;-23
2021/05/23 04:00:15;;;;;;;10.35;7.05;;;;;;;13.55;69.95;100225.03;5026810;28;20025;-23
2021/05/23 04:02:41;;;;;;;14.30;8.00;;;;;;;14.04;68.06;100233.56;5026976;28;20030;-23
2021/05/23 04:05:08;;;;;;;11.00;7.25;;;;;;;14.42;67.27;100250.91;5026940;28;20033;-23
2021/05/23 04:07:33;;;;;;;80.50;11.15;;;;;;;14.40;67.94;100239.59;5025688;28;20029;-23
2021/05/23 04:09:59;;;;;;;10.00;7.90;;;;;;;14.88;67.13;100258.22;5026942;28;20456;-23
2021/05/23 04:14:50;;;;;;;11.00;8.65;;;;;;;15.53;66.26;100262.19;5025678;28;20065;-25
2021/05/23 04:17:15;;;;;;;13.32;8.88;;;;;;;15.64;65.20;100250.53;5027083;28;20053;-25
2021/05/23 04:19:41;;;;;;;12.07;8.60;;;;;;;15.61;65.90;100262.59;5026744;28;20037;-25
2021/05/23 04:22:06;;;;;;;12.38;8.63;;;;;;;15.78;65.27;100259.88;5026672;28;20535;-25
2021/05/23 04:24:33;;;;;;;12.25;8.10;;;;;;;16.09;64.46;100262.97;5026686;28;20137;-25
2021/05/23 04:26:59;;;;;;;13.27;8.43;;;;;;;16.30;63.97;100257.81;5026736;28;20413;-25
2021/05/23 04:29:24;;;;;;;12.55;8.30;;;;;;;16.48;63.76;100254.78;5026763;28;20029;-25
2021/05/23 04:31:50;;;;;;;11.07;8.32;;;;;;;16.38;63.82;100243.91;5026761;28;20037;-25
2021/05/23 04:34:15;;;;;;;11.07;8.63;;;;;;;16.60;63.24;100260.03;5026538;28;20025;-26
2021/05/23 04:36:41;;;;;;;10.32;8.68;;;;;;;16.65;63.68;100270.84;5026805;28;20044;-25
2021/05/23 04:39:06;;;;;;;12.75;9.48;;;;;;;16.59;64.30;100278.06;5025459;28;20026;-25
2021/05/23 04:41:33;;;;;;;11.40;8.98;;;;;;;16.52;64.45;100282.84;5027050;28;20100;-25
2021/05/23 04:43:58;;;;;;;11.68;8.82;;;;;;;16.68;64.26;100290.00;5026686;28;20026;-25
2021/05/23 04:46:24;;;;;;;12.60;8.70;;;;;;;16.87;63.64;100285.09;5026456;28;20079;-25
2021/05/23 04:48:49;;;;;;;16.88;8.88;;;;;;;17.11;62.96;100300.94;5026554;28;20048;-25
2021/05/23 04:51:15;;;;;;;10.70;8.60;;;;;;;17.14;62.29;100289.66;5026137;28;20064;-25
2021/05/23 04:53:40;;;;;;;13.55;9.52;;;;;;;17.31;62.51;100286.03;5026810;28;20033;-25
2021/05/23 04:56:06;;;;;;;11.95;9.05;;;;;;;17.33;62.62;100291.97;5026970;28;20148;-25
2021/05/23 04:58:31;;;;;;;13.25;8.77;;;;;;;17.23;62.92;100296.19;5026536;28;20567;-25
2021/05/23 05:00:57;;;;;;;11.80;8.55;;;;;;;17.39;62.65;100302.53;5030046;28;20037;-25
2021/05/23 05:03:22;;;;;;;12.93;9.85;;;;;;;17.27;63.31;100296.50;5029956;28;20022;-25
2021/05/23 05:05:48;;;;;;;13.60;8.77;;;;;;;17.15;62.62;100285.88;5029637;28;20037;-25
2021/05/23 05:08:13;;;;;;;10.93;8.90;;;;;;;17.43;62.21;100308.22;5029740;28;20037;-25
2021/05/23 05:10:39;;;;;;;13.32;9.55;;;;;;;17.09;63.71;100311.16;5028937;28;20619;-27
2021/05/23 05:13:04;;;;;;;13.85;8.85;;;;;;;17.41;62.68;100315.75;5030066;28;20034;-25
2021/05/23 05:15:30;;;;;;;16.92;9.75;;;;;;;17.45;63.14;100317.66;5028486;28;20041;-25
2021/05/23 05:17:55;;;;;;;12.02;8.63;;;;;;;17.87;62.09;100321.47;5028395;28;20037;-23
2021/05/23 05:20:21;;;;;;;10.40;8.73;;;;;;;17.39;62.70;100320.59;5029248;28;20491;-23
2021/05/23 05:22:46;;;;;;;10.98;8.93;;;;;;;17.95;61.08;100315.56;5029598;28;20036;-23
2021/05/23 05:25:12;;;;;;;12.75;8.50;;;;;;;18.10;60.34;100328.31;5029619;28;20044;-23
2021/05/23 05:27:38;;;;;;;14.20;8.45;;;;;;;17.89;61.03;100332.00;5029671;28;20065;-23
2021/05/23 05:30:04;;;;;;;14.27;9.13;;;;;;;17.51;62.44;100332.00;5029793;28;20044;-23
2021/05/23 05:32:30;;;;;;;11.45;8.55;;;;;;;17.97;61.17;100337.72;5029817;28;20034;-23
2021/05/23 05:34:55;;;;;;;10.98;8.75;;;;;;;17.75;61.80;100342.41;5029141;28;20041;-23
2021/05/23 05:37:21;;;;;;;11.25;9.13;;;;;;;17.93;61.29;100339.31;5029595;28;20029;-23
2021/05/23 05:39:47;;;;;;;11.98;9.30;;;;;;;17.96;61.34;100349.59;5029559;28;20080;-23
2021/05/23 05:42:12;;;;;;;12.45;8.50;;;;;;;18.20;59.99;100333.78;5029224;28;20026;-23
2021/05/23 05:44:38;;;;;;;13.35;8.50;;;;;;;17.73;61.63;100347.25;5027959;28;20038;-23
2021/05/23 05:47:03;;;;;;;12.57;8.73;;;;;;;17.78;62.14;100347.28;5027915;28;20433;-28
2021/05/23 05:49:29;;;;;;;13.35;9.10;;;;;;;18.44;59.48;100344.94;5029201;28;20858;-23
2021/05/23 05:51:54;;;;;;;13.25;9.23;;;;;;;18.78;59.63;100341.84;5027582;28;20438;-23
2021/05/23 05:54:19;;;;;;;12.73;8.90;;;;;;;18.75;59.36;100344.25;5028994;28;20026;-23
2021/05/23 05:56:45;;;;;;;11.27;8.38;;;;;;;18.71;58.94;100343.97;5029327;28;20091;-23
2021/05/23 05:59:10;;;;;;;12.10;8.10;;;;;;;18.68;58.16;100344.50;5028996;28;20033;-23
2021/05/23 06:01:36;;;;;;;10.00;8.00;;;;;;;18.50;59.91;100331.47;5029062;28;20036;-23
2021/05/23 06:04:01;;;;;;;11.45;8.40;;;;;;;18.79;59.05;100340.75;5028983;28;20091;-23
2021/05/23 06:06:27;;;;;;;17.40;12.88;;;;;;;18.94;57.73;100341.88;5028583;28;20029;-23
2021/05/23 06:08:54;;;;;;;11.07;8.75;;;;;;;19.08;58.10;100326.75;5028812;28;20029;-23
2021/05/23 06:11:20;;;;;;;10.48;8.07;;;;;;;18.95;57.41;100332.69;5027438;28;20036;-23
2021/05/23 06:13:45;;;;;;;13.98;8.85;;;;;;;19.18;57.22;100332.16;5028574;28;20029;-23
2021/05/23 06:16:11;;;;;;;13.52;9.13;;;;;;;18.72;59.10;100318.59;5028311;28;20095;-23
2021/05/23 06:18:36;;;;;;;10.23;7.95;;;;;;;19.00;57.78;100327.28;5028480;28;20067;-24
2021/05/23 06:21:02;;;;;;;13.00;8.27;;;;;;;19.64;56.61;100334.06;5028290;28;20037;-23
2021/05/23 06:23:27;;;;;;;10.27;8.10;;;;;;;19.66;56.72;100340.81;5028608;28;20025;-24
2021/05/23 06:25:54;;;;;;;9.23;6.53;;;;;;;19.48;55.88;100341.38;5028968;28;20033;-23
2021/05/23 06:28:19;;;;;;;9.80;6.82;;;;;;;19.66;55.97;100340.81;5027402;28;20545;-23
2021/05/23 06:30:44;;;;;;;10.38;7.05;;;;;;;19.41;57.37;100344.38;5028272;28;20033;-23
2021/05/23 06:33:10;;;;;;;10.15;6.32;;;;;;;19.80;55.42;100348.44;5028052;28;20022;-23
2021/05/23 06:35:35;;;;;;;10.07;6.32;;;;;;;20.24;54.10;100358.59;5028262;28;20041;-23
2021/05/23 06:38:01;;;;;;;9.27;5.97;;;;;;;20.55;52.90;100347.63;5028281;28;20528;-23
2021/05/23 06:40:27;;;;;;;8.48;6.20;;;;;;;20.37;53.04;100325.50;5027987;28;20478;-23
2021/05/23 06:42:52;;;;;;;8.13;5.90;;;;;;;20.76;52.78;100338.34;5028294;28;20030;-24
2021/05/23 06:45:17;;;;;;;8.40;5.88;;;;;;;20.67;53.35;100323.75;5028293;28;20033;-23
2021/05/23 06:47:43;;;;;;;8.20;5.85;;;;;;;20.86;53.24;100322.00;5028197;28;20064;-23
2021/05/23 06:50:09;;;;;;;8.50;5.72;;;;;;;21.25;50.81;100320.38;5026624;28;20486;-23
2021/05/23 06:52:35;;;;;;;26.13;6.88;;;;;;;21.84;50.04;100323.91;5027468;28;20504;-23
2021/05/23 06:55:00;;;;;;;21.13;6.15;;;;;;;21.69;50.81;100332.22;5027698;28;20029;-23
2021/05/23 06:57:26;;;;;;;8.48;4.97;;;;;;;21.55;49.47;100322.03;5028019;28;20087;-24
2021/05/23 06:59:52;;;;;;;11.27;5.93;;;;;;;21.59;49.96;100331.22;5028063;28;20037;-24
2021/05/23 07:02:17;;;;;;;7.20;4.68;;;;;;;21.35;51.08;100311.31;5027778;28;20037;-24
2021/05/23 07:04:43;;;;;;;7.00;5.45;;;;;;;21.39;51.89;100296.09;5027742;28;20029;-23
2021/05/23 07:07:08;;;;;;;7.28;4.80;;;;;;;21.61;48.53;100312.72;5027929;28;20033;-23
2021/05/23 07:09:34;;;;;;;6.80;4.47;;;;;;;22.03;48.46;100308.50;5027590;28;20052;-23
2021/05/23 07:12:00;;;;;;;8.45;4.78;;;;;;;22.43;47.05;100324.59;5027792;28;20034;-23
2021/05/23 07:14:25;;;;;;;6.43;4.90;;;;;;;22.89;46.42;100323.97;5025970;28;20026;-23
2021/05/23 07:16:51;;;;;;;6.97;4.15;;;;;;;22.21;45.21;100316.97;5027394;28;20087;-23
2021/05/23 07:19:16;;;;;;;5.40;3.83;;;;;;;22.60;46.09;100315.97;5027409;28;20033;-23
2021/05/23 07:21:42;;;;;;;6.38;3.95;;;;;;;22.70;47.23;100326.69;5028013;28;20797;-23
2021/05/23 07:24:07;;;;;;;5.65;3.92;;;;;;;22.61;45.58;100328.44;5027508;28;20056;-23
2021/05/23 07:26:33;;;;;;;6.32;3.92;;;;;;;22.46;45.31;100315.88;5027391;28;20025;-23
2021/05/23 07:28:58;;;;;;;5.43;3.72;;;;;;;22.39;46.12;100310.81;5027310;28;20041;-23
2021/05/23 07:31:24;;;;;;;5.63;3.97;;;;;;;22.94;44.47;100301.31;5027104;28;20037;-23
2021/05/23 07:33:49;;;;;;;6.32;3.80;;;;;;;23.12;45.23;100313.31;5027300;28;20032;-23
2021/05/23 07:36:15;;;;;;;6.03;3.78;;;;;;;23.84;43.23;100310.16;5027135;28;20025;-23
2021/05/23 07:38:41;;;;;;;6.88;3.70;;;;;;;22.96;45.15;100299.91;5027587;28;20410;-23
2021/05/23 07:41:07;;;;;;;6.43;4.25;;;;;;;23.04;44.96;100304.72;5027187;28;20615;-23
2021/05/23 07:43:32;;;;;;;5.50;3.88;;;;;;;23.42;42.83;100318.25;5027123;28;20022;-23
2021/05/23 07:45:58;;;;;;;7.93;4.18;;;;;;;23.40;43.53;100308.78;5027030;28;20029;-23
2021/05/23 07:48:24;;;;;;;7.68;4.03;;;;;;;24.23;40.79;100306.94;5026743;28;20041;-24
2021/05/23 07:50:49;;;;;;;5.68;3.45;;;;;;;23.76;42.23;100311.66;5027009;28;20087;-23
2021/05/23 07:53:15;;;;;;;4.88;3.22;;;;;;;24.25;40.49;100312.06;5026944;28;20033;-23
2021/05/23 07:55:42;;;;;;;5.10;3.38;;;;;;;24.75;39.59;100325.75;5025855;28;20045;-23
2021/05/23 07:58:07;;;;;;;5.18;3.38;;;;;;;24.62;39.85;100315.66;5026522;28;20034;-26
2021/05/23 08:00:33;;;;;;;6.70;4.05;;;;;;;24.58;40.58;100325.56;5026801;28;20099;-23
2021/05/23 08:02:59;;;;;;;5.97;3.65;;;;;;;25.07;40.29;100321.19;5026774;28;20094;-23
2021/05/23 08:05:25;;;;;;;5.53;3.75;;;;;;;24.88;39.13;100299.53;5027054;28;20048;-23
2021/05/23 08:07:50;;;;;;;5.70;3.45;;;;;;;24.77;40.23;100323.53;5026945;28;20026;-23
2021/05/23 08:10:16;;;;;;;5.22;3.83;;;;;;;24.82;40.66;100325.31;5026533;28;20033;-23
2021/05/23 08:12:41;;;;;;;6.30;3.28;;;;;;;25.14;38.35;100318.81;5026818;28;20034;-23
2021/05/23 08:15:07;;;;;;;8.05;3.40;;;;;;;25.40;38.64;100320.97;5026916;28;20497;-24
2021/05/23 08:17:33;;;;;;;6.63;4.10;;;;;;;25.79;40.11;100319.41;5026812;28;20526;-23
2021/05/23 08:19:58;;;;;;;6.65;4.20;;;;;;;25.29;38.64;100314.13;5026057;28;20034;-23
2021/05/23 08:22:24;;;;;;;5.53;3.90;;;;;;;25.30;39.45;100313.84;5026620;28;20030;-23
2021/05/23 08:24:50;;;;;;;6.05;3.72;;;;;;;24.99;40.66;100292.72;5026704;28;20624;-23
2021/05/23 08:27:16;;;;;;;7.03;3.78;;;;;;;25.64;39.85;100313.22;5027215;28;20048;-23
2021/05/23 08:29:41;;;;;;;10.60;6.53;;;;;;;25.51;39.28;100316.03;5026569;28;20091;-23
2021/05/23 08:32:07;;;;;;;144.55;34.95;;;;;;;25.46;40.70;100314.25;5026929;28;20029;-23
2021/05/23 08:34:32;;;;;;;45.55;13.65;;;;;;;26.00;41.25;100309.53;5028529;28;20159;-23
2021/05/23 08:36:59;;;;;;;4.55;3.65;;;;;;;26.22;38.55;100294.16;5030810;28;20041;-23
2021/05/23 08:39:24;;;;;;;5.67;3.90;;;;;;;26.26;38.95;100314.28;5030695;28;20043;-23
2021/05/23 08:41:52;;;;;;;5.28;3.53;;;;;;;26.15;37.66;100305.53;5030502;28;20718;-23
2021/05/23 08:44:20;;;;;;;7.38;4.40;;;;;;;25.93;40.39;100303.72;5030482;28;20811;-23
2021/05/23 08:46:46;;;;;;;;;;;;;;;25.78;40.15;100306.84;5029831;28;20044;-23
2021/05/23 08:49:12;;;;;;;6.20;4.25;;;;;;;26.12;39.76;100310.84;5030612;28;19908;-23
2021/05/23 08:51:38;;;;;;;6.72;3.90;;;;;;;26.38;39.30;100316.38;5028741;28;20057;-23
2021/05/23 08:54:04;;;;;;;5.90;3.50;;;;;;;26.94;38.56;100308.41;5030148;28;20037;-23
2021/05/23 08:56:29;;;;;;;6.40;3.88;;;;;;;26.76;37.02;100319.34;5029736;28;20064;-23
2021/05/23 08:58:55;;;;;;;7.63;3.60;;;;;;;26.30;38.69;100311.72;5030116;28;20026;-23
2021/05/23 09:01:27;;;;;;;5.75;3.88;;;;;;;26.71;38.09;100299.56;5029853;28;20034;-23
2021/05/23 09:03:59;;;;;;;5.70;3.45;;;;;;;27.20;37.92;100305.63;5030084;28;20033;-23
2021/05/23 09:06:29;;;;;;;8.18;3.33;;;;;;;26.91;36.81;100298.09;5028524;28;20555;-23
2021/05/23 09:08:59;;;;;;;6.50;2.90;;;;;;;27.08;37.14;100303.56;5028524;28;20030;-23
2021/05/23 09:11:24;;;;;;;6.40;3.10;;;;;;;27.21;36.18;100296.28;5028797;28;20030;-23
2021/05/23 09:13:51;;;;;;;8.00;3.58;;;;;;;27.34;36.52;100295.31;5028350;28;20025;-23
2021/05/23 09:16:16;;;;;;;4.72;3.30;;;;;;;27.41;35.52;100290.13;5029661;28;20033;-23
2021/05/23 09:18:56;;;;;;;8.13;3.70;;;;;;;27.84;35.73;100296.59;5030117;28;20405;-23
2021/05/23 09:21:23;;;;;;;4.82;3.17;;;;;;;26.97;36.26;100291.31;5029649;28;20052;-23
2021/05/23 09:23:59;;;;;;;14.40;10.82;;;;;;;27.13;37.23;100267.78;5029773;28;20501;-23
2021/05/23 09:26:27;;;;;;;3.78;3.10;;;;;;;27.69;34.89;100288.94;5029312;28;20039;-23
2021/05/23 09:28:52;;;;;;;8.27;4.00;;;;;;;27.64;37.38;100279.75;5029631;28;20035;-23
2021/05/23 09:31:20;;;;;;;4.25;3.38;;;;;;;28.22;35.06;100280.13;5029784;28;20064;-22
2021/05/23 09:33:47;;;;;;;5.68;3.08;;;;;;;28.75;34.46;100279.75;5029544;28;20056;-23
2021/05/23 09:36:13;;;;;;;6.03;3.17;;;;;;;28.58;32.68;100277.94;5027983;28;20155;-23
2021/05/23 09:38:52;;;;;;;5.50;3.22;;;;;;;28.67;35.92;100289.66;5029308;28;20513;-23
2021/05/23 09:41:19;;;;;;;4.82;3.20;;;;;;;28.63;34.11;100277.75;5029451;28;20037;-23
2021/05/23 09:43:44;;;;;;;12.85;5.43;;;;;;;28.94;34.53;100265.53;5029298;28;20034;-23
2021/05/23 09:46:10;;;;;;;3.70;2.75;;;;;;;28.55;32.68;100259.44;5028751;28;20041;-23
2021/05/23 09:48:35;;;;;;;4.75;3.05;;;;;;;28.05;33.79;100264.59;5029204;28;20056;-23
2021/05/23 09:51:14;;;;;;;4.35;3.05;;;;;;;28.05;33.90;100250.88;5029137;28;20033;-23
2021/05/23 09:53:42;;;;;;;6.10;3.03;;;;;;;28.35;33.37;100261.00;5029161;28;20045;-23
2021/05/23 09:56:13;;;;;;;7.68;3.13;;;;;;;28.57;32.50;100263.44;5029290;28;20052;-22
2021/05/23 09:58:45;;;;;;;4.82;2.92;;;;;;;28.78;31.47;100257.13;5027653;28;20478;-23
2021/05/23 10:01:22;;;;;;;6.00;3.63;;;;;;;28.22;32.21;100251.91;5028945;28;20031;-23
2021/05/23 10:03:48;;;;;;;3.75;2.83;;;;;;;28.42;33.38;100234.66;5028643;28;20112;-23
2021/05/23 10:06:23;;;;;;;2.90;2.45;;;;;;;28.71;30.90;100245.88;5028995;28;20034;-23
2021/05/23 10:08:49;;;;;;;4.88;2.53;;;;;;;29.02;30.49;100246.22;5027822;28;20025;-23
2021/05/23 10:11:14;;;;;;;3.00;2.38;;;;;;;29.09;29.44;100244.88;5027454;28;20103;-23
2021/05/23 10:13:40;;;;;;;3.95;2.42;;;;;;;29.09;28.78;100237.41;5028763;28;20418;-23
2021/05/23 10:16:06;;;;;;;4.95;2.70;;;;;;;29.36;30.51;100226.97;5028428;28;20029;-22
2021/05/23 10:18:31;;;;;;;4.60;2.30;;;;;;;29.08;28.49;100226.81;5010350;28;20037;-23
2021/05/23 10:20:58;;;;;;;4.97;2.30;;;;;;;28.65;29.53;100231.56;5027413;28;20510;-23
2021/05/23 10:23:47;;;;;;;3.75;2.30;;;;;;;29.01;30.03;100236.41;5028674;28;20065;-23
2021/05/23 10:26:12;;;;;;;6.05;2.40;;;;;;;29.14;29.02;100217.22;5027675;28;20038;-23
2021/05/23 10:28:42;;;;;;;3.58;2.30;;;;;;;29.82;28.52;100223.00;5010662;28;20099;-23
2021/05/23 10:31:08;;;;;;;3.85;2.13;;;;;;;29.56;27.75;100225.28;5010466;28;20480;-23
2021/05/23 10:33:34;;;;;;;5.30;2.13;;;;;;;29.67;26.72;100217.34;5028205;28;20021;-23
2021/05/23 10:35:59;;;;;;;3.80;2.50;;;;;;;30.02;27.42;100213.00;5028375;28;20037;-23
2021/05/23 10:38:26;;;;;;;8.02;3.22;;;;;;;30.64;27.90;100221.09;5028278;28;20472;-23
2021/05/23 10:40:54;;;;;;;7.97;3.60;;;;;;;30.75;27.43;100204.88;5028489;28;20080;-23
2021/05/23 10:43:38;;;;;;;6.38;3.25;;;;;;;31.07;26.84;100205.75;5028204;28;20042;-24
2021/05/23 10:46:09;;;;;;;3.15;1.80;;;;;;;30.55;22.89;100214.97;5028454;28;20581;-23
2021/05/23 10:48:35;;;;;;;6.43;1.90;;;;;;;30.57;23.68;100224.47;5028237;28;20100;-23
2021/05/23 10:51:11;;;;;;;3.08;2.10;;;;;;;30.75;23.26;100213.94;5026550;28;20041;-23
2021/05/23 10:53:37;;;;;;;3.42;1.90;;;;;;;31.10;24.76;100220.75;5028182;28;20037;-23
2021/05/23 10:56:03;;;;;;;3.13;2.00;;;;;;;30.67;24.73;100201.13;5027461;28;20411;-23
2021/05/23 10:58:29;;;;;;;5.07;2.20;;;;;;;30.88;25.94;100216.66;5027444;28;20505;-23
2021/05/23 11:00:58;;;;;;;4.82;2.33;;;;;;;31.10;26.48;100209.75;5027828;28;20038;-23
2021/05/23 11:03:25;;;;;;;3.17;2.33;;;;;;;30.55;27.39;100193.72;5026919;28;20036;-23
2021/05/23 11:06:01;;;;;;;4.32;2.33;;;;;;;30.48;26.55;100192.72;5026390;28;20120;-22
2021/05/23 11:08:33;;;;;;;3.00;2.20;;;;;;;30.79;27.16;100198.31;5027266;28;20033;-23
2021/05/23 11:10:59;;;;;;;3.13;2.55;;;;;;;31.31;26.33;100195.72;5026569;28;20036;-25
2021/05/23 11:13:33;;;;;;;4.10;2.40;;;;;;;30.82;28.01;100211.38;5026706;28;20025;-23
2021/05/23 11:16:15;;;;;;;5.78;2.30;;;;;;;30.95;26.92;100194.81;5027556;28;20033;-23
2021/05/23 11:18:40;;;;;;;3.75;2.15;;;;;;;31.47;26.43;100199.31;5027799;28;20080;-22
2021/05/23 11:21:07;;;;;;;3.53;2.58;;;;;;;31.34;27.07;100186.72;5027630;28;20037;-23